sensor_id;sensor_type;location;lat;lon;timestamp;pressure;altitude;pressure_sealevel;temperature;humidity
41947;BME280;27638;42.184;24.848;2024-03-23T00:56:03;100050.47;;;9.26;59.92
41947;BME280;27638;42.184;24.848;2024-03-23T00:58:29;100048.53;;;9.28;59.55
41947;BME280;27638;42.184;24.848;2024-03-23T01:00:54;100047.41;;;9.31;59.92
41947;BME280;27638;42.184;24.848;2024-03-23T01:03:20;100048.28;;;9.22;59.93
41947;BME280;27638;42.184;24.848;2024-03-23T01:05:45;100053.56;;;9.22;60.24
41947;BME280;27638;42.184;24.848;2024-03-23T01:08:11;100050.78;;;9.23;59.96
41947;BME280;27638;42.184;24.848;2024-03-23T01:10:36;100051.34;;;9.17;59.74
41947;BME280;27638;42.184;24.848;2024-03-23T01:13:02;100044.00;;;9.11;59.82
41947;BME280;27638;42.184;24.848;2024-03-23T01:15:27;100048.66;;;9.00;59.68
41947;BME280;27638;42.184;24.848;2024-03-23T01:17:53;100046.44;;;8.95;60.75
41947;BME280;27638;42.184;24.848;2024-03-23T01:20:18;100044.91;;;8.92;60.90
41947;BME280;27638;42.184;24.848;2024-03-23T01:22:44;100043.25;;;8.91;60.48
41947;BME280;27638;42.184;24.848;2024-03-23T01:25:09;100046.47;;;8.85;61.08
41947;BME280;27638;42.184;24.848;2024-03-23T01:27:35;100048.56;;;8.82;60.62
41947;BME280;27638;42.184;24.848;2024-03-23T01:30:00;100050.78;;;8.86;60.80
41947;BME280;27638;42.184;24.848;2024-03-23T01:32:26;100049.13;;;8.85;61.15
41947;BME280;27638;42.184;24.848;2024-03-23T01:34:51;100043.84;;;8.85;61.38
41947;BME280;27638;42.184;24.848;2024-03-23T01:37:17;100044.81;;;8.84;61.57
41947;BME280;27638;42.184;24.848;2024-03-23T01:39:42;100037.75;;;8.75;61.46
41947;BME280;27638;42.184;24.848;2024-03-23T01:42:07;100038.44;;;8.77;61.34
41947;BME280;27638;42.184;24.848;2024-03-23T01:44:33;100043.84;;;8.76;61.38
41947;BME280;27638;42.184;24.848;2024-03-23T01:46:58;100033.72;;;8.71;61.64
41947;BME280;27638;42.184;24.848;2024-03-23T01:49:24;100043.31;;;8.72;61.81
41947;BME280;27638;42.184;24.848;2024-03-23T01:51:50;100045.97;;;8.62;60.91
41947;BME280;27638;42.184;24.848;2024-03-23T01:54:16;100038.19;;;8.61;59.85
41947;BME280;27638;42.184;24.848;2024-03-23T01:56:41;100036.81;;;8.57;59.44
41947;BME280;27638;42.184;24.848;2024-03-23T01:59:07;100042.81;;;8.49;60.34
41947;BME280;27638;42.184;24.848;2024-03-23T02:01:34;100043.22;;;8.45;59.91
41947;BME280;27638;42.184;24.848;2024-03-23T02:04:01;100044.56;;;8.10;59.84
41947;BME280;27638;42.184;24.848;2024-03-23T02:06:26;100033.59;;;7.95;61.02
41947;BME280;27638;42.184;24.848;2024-03-23T02:08:53;100034.00;;;7.62;62.04
41947;BME280;27638;42.184;24.848;2024-03-23T02:11:19;100040.09;;;7.72;61.91
41947;BME280;27638;42.184;24.848;2024-03-23T02:13:44;100036.94;;;7.78;62.14
41947;BME280;27638;42.184;24.848;2024-03-23T02:16:10;100035.41;;;7.85;63.15
41947;BME280;27638;42.184;24.848;2024-03-23T02:18:35;100032.63;;;7.87;63.13
41947;BME280;27638;42.184;24.848;2024-03-23T02:21:01;100030.13;;;7.95;62.39
41947;BME280;27638;42.184;24.848;2024-03-23T02:23:27;100001.00;;;7.87;62.77
41947;BME280;27638;42.184;24.848;2024-03-23T02:25:52;100032.22;;;8.01;62.69
41947;BME280;27638;42.184;24.848;2024-03-23T02:28:21;100037.91;;;7.96;63.70
41947;BME280;27638;42.184;24.848;2024-03-23T02:30:51;100034.59;;;7.94;64.05
41947;BME280;27638;42.184;24.848;2024-03-23T02:33:16;100038.59;;;7.98;63.85
41947;BME280;27638;42.184;24.848;2024-03-23T02:35:45;100034.31;;;7.97;63.59
41947;BME280;27638;42.184;24.848;2024-03-23T02:38:10;100038.88;;;8.05;64.01
41947;BME280;27638;42.184;24.848;2024-03-23T02:40:36;100040.13;;;8.01;63.51
41947;BME280;27638;42.184;24.848;2024-03-23T02:43:04;100036.09;;;8.07;63.81
41947;BME280;27638;42.184;24.848;2024-03-23T02:45:30;100030.00;;;8.06;63.77
41947;BME280;27638;42.184;24.848;2024-03-23T02:47:55;100035.69;;;8.21;63.17
41947;BME280;27638;42.184;24.848;2024-03-23T02:50:22;100039.63;;;8.36;63.08
41947;BME280;27638;42.184;24.848;2024-03-23T02:52:47;100041.69;;;8.52;62.37
41947;BME280;27638;42.184;24.848;2024-03-23T02:55:13;100035.44;;;8.43;60.76
41947;BME280;27638;42.184;24.848;2024-03-23T02:57:39;100035.56;;;8.51;61.16
41947;BME280;27638;42.184;24.848;2024-03-23T03:00:05;100044.44;;;8.31;61.88
41947;BME280;27638;42.184;24.848;2024-03-23T03:02:31;100038.88;;;8.24;62.62
41947;BME280;27638;42.184;24.848;2024-03-23T03:04:57;100039.97;;;8.31;62.24
41947;BME280;27638;42.184;24.848;2024-03-23T03:07:22;100040.00;;;8.22;61.22
41947;BME280;27638;42.184;24.848;2024-03-23T03:09:48;100041.25;;;8.18;61.67
41947;BME280;27638;42.184;24.848;2024-03-23T03:12:13;100037.34;;;8.12;61.77
41947;BME280;27638;42.184;24.848;2024-03-23T03:14:39;100030.84;;;8.07;62.60
41947;BME280;27638;42.184;24.848;2024-03-23T03:17:04;100035.13;;;7.98;61.66
41947;BME280;27638;42.184;24.848;2024-03-23T03:19:30;100032.34;;;7.99;60.20
41947;BME280;27638;42.184;24.848;2024-03-23T03:21:55;100026.94;;;7.91;61.55
41947;BME280;27638;42.184;24.848;2024-03-23T03:24:21;100037.03;;;7.57;61.55
41947;BME280;27638;42.184;24.848;2024-03-23T03:26:47;100035.09;;;7.69;61.92
41947;BME280;27638;42.184;24.848;2024-03-23T03:29:12;100033.88;;;7.73;61.96
41947;BME280;27638;42.184;24.848;2024-03-23T03:31:39;100034.84;;;7.82;63.36
41947;BME280;27638;42.184;24.848;2024-03-23T03:34:04;100040.81;;;7.74;60.54
41947;BME280;27638;42.184;24.848;2024-03-23T03:36:30;100041.34;;;7.58;62.53
41947;BME280;27638;42.184;24.848;2024-03-23T03:38:55;100045.59;;;7.40;64.01
41947;BME280;27638;42.184;24.848;2024-03-23T03:41:21;100045.78;;;7.27;65.40
41947;BME280;27638;42.184;24.848;2024-03-23T03:43:46;100039.22;;;7.43;65.21
41947;BME280;27638;42.184;24.848;2024-03-23T03:46:12;100050.19;;;7.48;62.57
41947;BME280;27638;42.184;24.848;2024-03-23T03:48:37;100051.88;;;7.18;61.87
41947;BME280;27638;42.184;24.848;2024-03-23T03:51:03;100048.13;;;7.21;62.16
41947;BME280;27638;42.184;24.848;2024-03-23T03:53:29;100053.47;;;7.30;63.49
41947;BME280;27638;42.184;24.848;2024-03-23T03:55:55;100060.13;;;7.34;62.98
41947;BME280;27638;42.184;24.848;2024-03-23T03:58:21;100057.22;;;7.38;63.08
41947;BME280;27638;42.184;24.848;2024-03-23T04:00:46;100057.94;;;7.40;62.46
41947;BME280;27638;42.184;24.848;2024-03-23T04:03:12;100061.13;;;7.43;62.12
41947;BME280;27638;42.184;24.848;2024-03-23T04:05:37;100053.91;;;7.45;62.63
41947;BME280;27638;42.184;24.848;2024-03-23T04:08:03;100062.22;;;7.41;61.92
41947;BME280;27638;42.184;24.848;2024-03-23T04:10:29;100067.84;;;7.26;63.21
41947;BME280;27638;42.184;24.848;2024-03-23T04:12:55;100072.53;;;7.23;63.73
41947;BME280;27638;42.184;24.848;2024-03-23T04:15:21;100066.13;;;6.85;66.50
41947;BME280;27638;42.184;24.848;2024-03-23T04:17:46;100066.16;;;6.95;65.99
41947;BME280;27638;42.184;24.848;2024-03-23T04:20:12;100068.53;;;6.98;65.32
41947;BME280;27638;42.184;24.848;2024-03-23T04:22:42;100075.44;;;6.89;65.64
41947;BME280;27638;42.184;24.848;2024-03-23T04:25:07;100072.41;;;7.24;64.66
41947;BME280;27638;42.184;24.848;2024-03-23T04:27:33;100073.03;;;7.38;63.62
41947;BME280;27638;42.184;24.848;2024-03-23T04:29:59;100068.34;;;7.41;63.34
41947;BME280;27638;42.184;24.848;2024-03-23T04:32:26;100072.94;;;7.49;63.64
41947;BME280;27638;42.184;24.848;2024-03-23T04:34:52;100073.19;;;7.46;63.68
41947;BME280;27638;42.184;24.848;2024-03-23T04:37:17;100073.84;;;7.28;64.29
41947;BME280;27638;42.184;24.848;2024-03-23T04:39:43;100077.59;;;7.35;64.21
41947;BME280;27638;42.184;24.848;2024-03-23T04:42:08;100082.63;;;7.48;63.56
41947;BME280;27638;42.184;24.848;2024-03-23T04:44:34;100083.50;;;7.58;63.36
41947;BME280;27638;42.184;24.848;2024-03-23T04:47:00;100093.63;;;7.63;63.23
41947;BME280;27638;42.184;24.848;2024-03-23T04:49:26;100083.19;;;7.52;62.83
41947;BME280;27638;42.184;24.848;2024-03-23T04:51:52;100083.59;;;7.47;62.65
41947;BME280;27638;42.184;24.848;2024-03-23T04:54:17;100081.84;;;7.27;63.86
41947;BME280;27638;42.184;24.848;2024-03-23T04:56:43;100072.13;;;7.27;63.94
41947;BME280;27638;42.184;24.848;2024-03-23T04:59:08;100075.53;;;7.39;63.46
41947;BME280;27638;42.184;24.848;2024-03-23T05:01:34;100076.94;;;7.43;63.72
41947;BME280;27638;42.184;24.848;2024-03-23T05:03:59;100086.13;;;7.58;63.15
41947;BME280;27638;42.184;24.848;2024-03-23T05:06:25;100082.56;;;7.29;64.58
41947;BME280;27638;42.184;24.848;2024-03-23T05:08:51;100087.03;;;7.38;63.94
41947;BME280;27638;42.184;24.848;2024-03-23T05:11:17;100084.69;;;7.35;64.01
41947;BME280;27638;42.184;24.848;2024-03-23T05:13:43;100085.63;;;7.34;64.54
41947;BME280;27638;42.184;24.848;2024-03-23T05:16:09;100083.34;;;7.50;64.19
41947;BME280;27638;42.184;24.848;2024-03-23T05:18:35;100078.06;;;7.50;63.49
41947;BME280;27638;42.184;24.848;2024-03-23T05:21:01;100079.59;;;7.22;64.92
41947;BME280;27638;42.184;24.848;2024-03-23T05:23:28;100072.78;;;7.50;64.31
41947;BME280;27638;42.184;24.848;2024-03-23T05:25:54;100071.19;;;7.28;64.47
41947;BME280;27638;42.184;24.848;2024-03-23T05:28:20;100074.84;;;7.37;64.29
41947;BME280;27638;42.184;24.848;2024-03-23T05:30:55;100081.94;;;7.46;64.64
41947;BME280;27638;42.184;24.848;2024-03-23T05:33:22;100080.03;;;7.27;64.70
41947;BME280;27638;42.184;24.848;2024-03-23T05:35:58;100076.41;;;7.49;64.34
41947;BME280;27638;42.184;24.848;2024-03-23T05:38:24;100081.69;;;7.59;63.77
41947;BME280;27638;42.184;24.848;2024-03-23T05:41:08;100083.97;;;7.83;63.56
41947;BME280;27638;42.184;24.848;2024-03-23T05:43:33;100076.50;;;7.97;62.61
41947;BME280;27638;42.184;24.848;2024-03-23T05:45:59;100076.78;;;8.23;61.63
41947;BME280;27638;42.184;24.848;2024-03-23T05:48:26;100075.72;;;8.36;61.58
41947;BME280;27638;42.184;24.848;2024-03-23T05:50:52;100078.63;;;8.52;60.74
41947;BME280;27638;42.184;24.848;2024-03-23T05:53:18;100069.59;;;8.64;60.07
41947;BME280;27638;42.184;24.848;2024-03-23T05:55:46;100077.47;;;8.83;59.68
41947;BME280;27638;42.184;24.848;2024-03-23T05:58:14;100078.47;;;9.19;59.13
41947;BME280;27638;42.184;24.848;2024-03-23T06:00:40;100072.41;;;9.46;57.60
41947;BME280;27638;42.184;24.848;2024-03-23T06:03:05;100075.38;;;9.61;56.69
41947;BME280;27638;42.184;24.848;2024-03-23T06:05:30;100072.41;;;9.91;56.29
41947;BME280;27638;42.184;24.848;2024-03-23T06:07:56;100074.69;;;10.04;54.46
41947;BME280;27638;42.184;24.848;2024-03-23T06:10:22;100068.44;;;10.23;54.19
41947;BME280;27638;42.184;24.848;2024-03-23T06:12:48;100072.44;;;10.27;53.71
41947;BME280;27638;42.184;24.848;2024-03-23T06:15:14;100064.41;;;10.37;53.38
41947;BME280;27638;42.184;24.848;2024-03-23T06:17:40;100073.72;;;10.59;53.50
41947;BME280;27638;42.184;24.848;2024-03-23T06:20:06;100070.19;;;10.76;52.34
41947;BME280;27638;42.184;24.848;2024-03-23T06:22:32;100076.66;;;10.73;51.53
41947;BME280;27638;42.184;24.848;2024-03-23T06:24:57;100069.31;;;10.67;51.48
41947;BME280;27638;42.184;24.848;2024-03-23T06:27:23;100069.53;;;11.00;52.52
41947;BME280;27638;42.184;24.848;2024-03-23T06:29:48;100066.16;;;11.24;50.97
41947;BME280;27638;42.184;24.848;2024-03-23T06:32:14;100069.34;;;11.27;49.89
41947;BME280;27638;42.184;24.848;2024-03-23T06:34:41;100067.88;;;11.33;50.41
41947;BME280;27638;42.184;24.848;2024-03-23T06:37:07;100073.13;;;11.50;50.24
41947;BME280;27638;42.184;24.848;2024-03-23T06:39:35;100072.03;;;11.69;49.32
41947;BME280;27638;42.184;24.848;2024-03-23T06:42:01;100064.97;;;11.94;49.21
41947;BME280;27638;42.184;24.848;2024-03-23T06:44:26;100063.19;;;12.03;49.15
41947;BME280;27638;42.184;24.848;2024-03-23T06:46:53;100071.13;;;12.03;48.58
41947;BME280;27638;42.184;24.848;2024-03-23T06:49:18;100065.66;;;11.96;48.88
41947;BME280;27638;42.184;24.848;2024-03-23T06:51:45;100069.00;;;12.14;48.93
41947;BME280;27638;42.184;24.848;2024-03-23T06:54:11;100064.19;;;12.42;48.05
41947;BME280;27638;42.184;24.848;2024-03-23T06:56:37;100065.38;;;12.72;47.50
41947;BME280;27638;42.184;24.848;2024-03-23T06:59:02;100063.88;;;12.70;47.93
41947;BME280;27638;42.184;24.848;2024-03-23T07:01:28;100064.84;;;12.85;47.31
41947;BME280;27638;42.184;24.848;2024-03-23T07:03:56;100059.47;;;13.09;46.99
41947;BME280;27638;42.184;24.848;2024-03-23T07:06:22;100055.94;;;13.33;46.44
41947;BME280;27638;42.184;24.848;2024-03-23T07:08:47;100057.69;;;13.49;46.39
41947;BME280;27638;42.184;24.848;2024-03-23T07:11:21;100061.59;;;13.30;46.62
41947;BME280;27638;42.184;24.848;2024-03-23T07:13:49;100051.22;;;13.52;45.94
41947;BME280;27638;42.184;24.848;2024-03-23T07:16:16;100049.50;;;13.67;45.73
41947;BME280;27638;42.184;24.848;2024-03-23T07:18:41;100046.44;;;13.78;45.89
41947;BME280;27638;42.184;24.848;2024-03-23T07:21:07;100045.09;;;13.82;45.79
41947;BME280;27638;42.184;24.848;2024-03-23T07:23:33;100047.81;;;13.97;46.52
41947;BME280;27638;42.184;24.848;2024-03-23T07:26:00;100041.66;;;14.19;45.37
41947;BME280;27638;42.184;24.848;2024-03-23T07:28:26;100044.28;;;14.04;45.39
41947;BME280;27638;42.184;24.848;2024-03-23T07:31:08;100041.25;;;14.07;45.76
41947;BME280;27638;42.184;24.848;2024-03-23T07:33:35;100031.03;;;14.42;44.56
41947;BME280;27638;42.184;24.848;2024-03-23T07:36:01;100034.75;;;14.56;44.96
41947;BME280;27638;42.184;24.848;2024-03-23T07:38:28;100031.88;;;14.80;44.33
41947;BME280;27638;42.184;24.848;2024-03-23T07:41:08;100020.66;;;14.85;44.94
41947;BME280;27638;42.184;24.848;2024-03-23T07:43:38;100018.38;;;14.96;44.67
41947;BME280;27638;42.184;24.848;2024-03-23T07:46:04;100017.63;;;14.88;44.58
41947;BME280;27638;42.184;24.848;2024-03-23T07:48:29;100013.69;;;14.98;44.42
41947;BME280;27638;42.184;24.848;2024-03-23T07:51:03;100021.94;;;15.04;44.46
41947;BME280;27638;42.184;24.848;2024-03-23T07:53:32;100013.94;;;15.04;43.86
41947;BME280;27638;42.184;24.848;2024-03-23T07:58:28;100019.63;;;15.30;43.91
41947;BME280;27638;42.184;24.848;2024-03-23T08:01:04;100017.97;;;15.29;43.50
41947;BME280;27638;42.184;24.848;2024-03-23T08:03:30;100006.94;;;15.32;43.24
41947;BME280;27638;42.184;24.848;2024-03-23T08:05:56;100008.84;;;15.38;42.97
41947;BME280;27638;42.184;24.848;2024-03-23T08:08:21;100004.06;;;15.48;41.32
41947;BME280;27638;42.184;24.848;2024-03-23T08:10:50;100005.94;;;15.04;42.01
41947;BME280;27638;42.184;24.848;2024-03-23T08:13:17;100001.81;;;15.16;43.30
41947;BME280;27638;42.184;24.848;2024-03-23T08:15:43;99997.94;;;15.18;42.81
41947;BME280;27638;42.184;24.848;2024-03-23T08:18:10;99999.78;;;15.18;41.83
41947;BME280;27638;42.184;24.848;2024-03-23T08:20:36;99986.88;;;15.36;42.23
41947;BME280;27638;42.184;24.848;2024-03-23T08:23:01;99988.72;;;15.36;41.55
41947;BME280;27638;42.184;24.848;2024-03-23T08:25:27;99990.72;;;15.48;41.43
41947;BME280;27638;42.184;24.848;2024-03-23T08:27:52;99982.78;;;15.55;42.37
41947;BME280;27638;42.184;24.848;2024-03-23T08:30:18;99979.59;;;15.45;42.24
41947;BME280;27638;42.184;24.848;2024-03-23T08:32:43;99980.59;;;15.44;41.36
41947;BME280;27638;42.184;24.848;2024-03-23T08:35:09;99967.72;;;15.47;42.96
41947;BME280;27638;42.184;24.848;2024-03-23T08:37:34;99973.88;;;15.62;42.21
41947;BME280;27638;42.184;24.848;2024-03-23T08:40:00;99974.78;;;15.70;40.93
41947;BME280;27638;42.184;24.848;2024-03-23T08:42:26;99978.03;;;15.65;40.35
41947;BME280;27638;42.184;24.848;2024-03-23T08:44:51;99965.94;;;15.69;40.84
41947;BME280;27638;42.184;24.848;2024-03-23T08:47:16;99964.69;;;15.65;41.27
41947;BME280;27638;42.184;24.848;2024-03-23T08:49:42;99957.59;;;15.57;40.86
41947;BME280;27638;42.184;24.848;2024-03-23T08:52:09;99960.59;;;15.54;41.96
41947;BME280;27638;42.184;24.848;2024-03-23T08:54:34;99957.53;;;15.36;42.81
41947;BME280;27638;42.184;24.848;2024-03-23T08:57:00;99965.94;;;15.18;40.62
41947;BME280;27638;42.184;24.848;2024-03-23T08:59:26;99951.97;;;14.87;41.74
41947;BME280;27638;42.184;24.848;2024-03-23T09:01:52;99958.78;;;15.04;42.97
41947;BME280;27638;42.184;24.848;2024-03-23T09:04:17;99950.59;;;15.06;43.47
41947;BME280;27638;42.184;24.848;2024-03-23T09:06:43;99945.81;;;15.01;44.22
41947;BME280;27638;42.184;24.848;2024-03-23T09:09:08;99937.00;;;14.71;45.04
41947;BME280;27638;42.184;24.848;2024-03-23T09:11:34;99940.59;;;14.63;43.68
41947;BME280;27638;42.184;24.848;2024-03-23T09:13:59;99935.72;;;14.29;42.56
41947;BME280;27638;42.184;24.848;2024-03-23T09:16:25;99926.28;;;14.42;42.98
41947;BME280;27638;42.184;24.848;2024-03-23T09:18:51;99922.81;;;14.56;40.30
41947;BME280;27638;42.184;24.848;2024-03-23T09:21:17;99923.94;;;14.91;41.50
41947;BME280;27638;42.184;24.848;2024-03-23T09:23:46;99915.56;;;14.94;41.57
41947;BME280;27638;42.184;24.848;2024-03-23T09:26:12;99920.16;;;15.00;42.73
41947;BME280;27638;42.184;24.848;2024-03-23T09:28:37;99907.63;;;15.15;41.75
41947;BME280;27638;42.184;24.848;2024-03-23T09:31:04;99896.78;;;15.38;41.84
41947;BME280;27638;42.184;24.848;2024-03-23T09:33:29;99892.41;;;15.52;42.46
41947;BME280;27638;42.184;24.848;2024-03-23T09:35:55;99892.84;;;15.55;40.62
41947;BME280;27638;42.184;24.848;2024-03-23T09:38:22;99889.63;;;15.39;42.12
41947;BME280;27638;42.184;24.848;2024-03-23T09:40:50;99896.56;;;15.18;40.83
41947;BME280;27638;42.184;24.848;2024-03-23T09:43:18;99884.25;;;15.17;41.29
41947;BME280;27638;42.184;24.848;2024-03-23T09:45:45;99886.13;;;15.02;39.55
41947;BME280;27638;42.184;24.848;2024-03-23T09:48:11;99885.75;;;15.05;39.14
41947;BME280;27638;42.184;24.848;2024-03-23T09:50:40;99875.84;;;14.99;38.83
41947;BME280;27638;42.184;24.848;2024-03-23T09:53:11;99847.75;;;14.82;38.77
41947;BME280;27638;42.184;24.848;2024-03-23T09:55:40;99861.38;;;15.08;38.57
41947;BME280;27638;42.184;24.848;2024-03-23T09:58:06;99858.41;;;15.18;39.13
41947;BME280;27638;42.184;24.848;2024-03-23T10:00:35;99850.84;;;15.21;38.93
41947;BME280;27638;42.184;24.848;2024-03-23T10:03:01;99857.09;;;15.28;38.84
41947;BME280;27638;42.184;24.848;2024-03-23T10:05:28;99845.31;;;15.23;39.55
41947;BME280;27638;42.184;24.848;2024-03-23T10:07:54;99848.94;;;15.15;41.86
41947;BME280;27638;42.184;24.848;2024-03-23T10:10:19;99842.34;;;15.11;40.90
41947;BME280;27638;42.184;24.848;2024-03-23T10:12:48;99840.56;;;15.18;40.63
41947;BME280;27638;42.184;24.848;2024-03-23T10:15:22;99829.97;;;15.25;40.93
41947;BME280;27638;42.184;24.848;2024-03-23T10:17:48;99829.38;;;15.29;39.88
41947;BME280;27638;42.184;24.848;2024-03-23T10:20:23;99831.69;;;15.32;40.20
41947;BME280;27638;42.184;24.848;2024-03-23T10:22:52;99816.53;;;14.97;40.38
41947;BME280;27638;42.184;24.848;2024-03-23T10:25:22;99817.50;;;15.11;38.85
41947;BME280;27638;42.184;24.848;2024-03-23T10:27:58;99814.50;;;14.99;39.68
41947;BME280;27638;42.184;24.848;2024-03-23T10:30:25;99813.91;;;14.82;40.53
41947;BME280;27638;42.184;24.848;2024-03-23T10:33:07;99798.50;;;14.99;41.23
41947;BME280;27638;42.184;24.848;2024-03-23T10:35:32;99796.03;;;15.19;40.54
41947;BME280;27638;42.184;24.848;2024-03-23T10:37:58;99791.66;;;15.32;39.70
41947;BME280;27638;42.184;24.848;2024-03-23T10:40:23;99780.66;;;15.42;39.18
41947;BME280;27638;42.184;24.848;2024-03-23T10:42:51;99778.63;;;15.44;40.44
41947;BME280;27638;42.184;24.848;2024-03-23T10:45:17;99779.94;;;15.55;39.00
41947;BME280;27638;42.184;24.848;2024-03-23T10:47:43;99771.72;;;15.71;38.17
41947;BME280;27638;42.184;24.848;2024-03-23T10:50:09;99775.16;;;15.65;39.30
41947;BME280;27638;42.184;24.848;2024-03-23T10:52:35;99766.13;;;15.66;38.27
41947;BME280;27638;42.184;24.848;2024-03-23T10:55:03;99760.41;;;15.69;38.53
41947;BME280;27638;42.184;24.848;2024-03-23T10:57:36;99758.41;;;15.56;38.19
41947;BME280;27638;42.184;24.848;2024-03-23T11:00:03;99759.88;;;15.59;38.68
41947;BME280;27638;42.184;24.848;2024-03-23T11:02:29;99748.31;;;15.52;38.45
41947;BME280;27638;42.184;24.848;2024-03-23T11:04:55;99745.25;;;15.76;37.63
41947;BME280;27638;42.184;24.848;2024-03-23T11:09:49;99728.81;;;15.51;38.12
41947;BME280;27638;42.184;24.848;2024-03-23T11:17:24;99722.88;;;15.77;37.52
41947;BME280;27638;42.184;24.848;2024-03-23T11:25:03;99704.59;;;15.74;36.90
41947;BME280;27638;42.184;24.848;2024-03-23T11:27:28;99694.19;;;15.86;36.55
41947;BME280;27638;42.184;24.848;2024-03-23T11:29:54;99690.25;;;15.82;37.08
41947;BME280;27638;42.184;24.848;2024-03-23T11:32:19;99678.81;;;15.94;36.67
41947;BME280;27638;42.184;24.848;2024-03-23T11:34:46;99678.22;;;15.99;36.09
41947;BME280;27638;42.184;24.848;2024-03-23T11:37:11;99668.81;;;16.10;35.33
41947;BME280;27638;42.184;24.848;2024-03-23T11:39:37;99661.88;;;16.22;36.92
41947;BME280;27638;42.184;24.848;2024-03-23T11:42:02;99656.09;;;16.12;35.78
41947;BME280;27638;42.184;24.848;2024-03-23T11:44:28;99651.59;;;16.25;35.60
41947;BME280;27638;42.184;24.848;2024-03-23T11:46:53;99653.69;;;16.30;34.26
41947;BME280;27638;42.184;24.848;2024-03-23T11:49:32;99641.34;;;16.29;34.85
41947;BME280;27638;42.184;24.848;2024-03-23T11:51:58;99639.06;;;16.19;33.86
41947;BME280;27638;42.184;24.848;2024-03-23T11:54:24;99638.25;;;16.25;34.22
41947;BME280;27638;42.184;24.848;2024-03-23T11:57:04;99627.16;;;16.28;34.70
41947;BME280;27638;42.184;24.848;2024-03-23T12:01:59;99617.50;;;16.27;33.65
41947;BME280;27638;42.184;24.848;2024-03-23T12:04:28;99620.59;;;16.31;33.76
41947;BME280;27638;42.184;24.848;2024-03-23T12:07:13;99613.59;;;16.37;35.38
41947;BME280;27638;42.184;24.848;2024-03-23T12:09:40;99610.94;;;16.30;35.04
41947;BME280;27638;42.184;24.848;2024-03-23T12:12:14;99608.84;;;16.25;35.53
41947;BME280;27638;42.184;24.848;2024-03-23T12:14:43;99598.19;;;16.39;35.43
41947;BME280;27638;42.184;24.848;2024-03-23T12:17:13;99596.56;;;16.38;35.36
41947;BME280;27638;42.184;24.848;2024-03-23T12:19:39;99583.59;;;16.35;34.03
41947;BME280;27638;42.184;24.848;2024-03-23T12:22:06;99587.72;;;16.44;34.96
41947;BME280;27638;42.184;24.848;2024-03-23T12:24:32;99585.06;;;16.50;34.94
41947;BME280;27638;42.184;24.848;2024-03-23T12:27:04;99585.47;;;16.60;35.23
41947;BME280;27638;42.184;24.848;2024-03-23T12:29:31;99578.72;;;16.65;34.07
41947;BME280;27638;42.184;24.848;2024-03-23T12:32:06;99561.69;;;16.66;33.75
41947;BME280;27638;42.184;24.848;2024-03-23T12:34:31;99568.88;;;16.65;32.49
41947;BME280;27638;42.184;24.848;2024-03-23T12:36:57;99561.81;;;16.57;32.28
41947;BME280;27638;42.184;24.848;2024-03-23T12:39:22;99564.09;;;16.60;32.44
41947;BME280;27638;42.184;24.848;2024-03-23T12:41:49;99560.19;;;16.56;32.15
41947;BME280;27638;42.184;24.848;2024-03-23T12:44:14;99553.00;;;16.57;31.52
41947;BME280;27638;42.184;24.848;2024-03-23T12:46:41;99550.31;;;16.50;33.55
41947;BME280;27638;42.184;24.848;2024-03-23T12:49:07;99548.47;;;16.57;30.75
41947;BME280;27638;42.184;24.848;2024-03-23T12:51:33;99543.72;;;16.59;30.71
41947;BME280;27638;42.184;24.848;2024-03-23T12:53:59;99540.25;;;16.52;30.54
41947;BME280;27638;42.184;24.848;2024-03-23T12:56:24;99534.91;;;16.52;30.82
41947;BME280;27638;42.184;24.848;2024-03-23T12:58:50;99529.34;;;16.60;32.01
41947;BME280;27638;42.184;24.848;2024-03-23T13:01:19;99524.00;;;16.60;32.22
41947;BME280;27638;42.184;24.848;2024-03-23T13:03:48;99524.41;;;16.64;31.93
41947;BME280;27638;42.184;24.848;2024-03-23T13:06:15;99510.22;;;16.64;32.63
41947;BME280;27638;42.184;24.848;2024-03-23T13:08:40;99511.50;;;16.74;31.26
41947;BME280;27638;42.184;24.848;2024-03-23T13:11:07;99508.41;;;16.71;32.52
41947;BME280;27638;42.184;24.848;2024-03-23T13:13:34;99499.53;;;16.64;33.63
41947;BME280;27638;42.184;24.848;2024-03-23T13:16:00;99495.00;;;16.57;32.21
41947;BME280;27638;42.184;24.848;2024-03-23T13:18:25;99498.97;;;16.68;32.34
41947;BME280;27638;42.184;24.848;2024-03-23T13:20:51;99498.50;;;16.58;32.58
41947;BME280;27638;42.184;24.848;2024-03-23T13:23:17;99495.47;;;16.68;32.52
41947;BME280;27638;42.184;24.848;2024-03-23T13:25:52;99494.84;;;16.79;33.50
41947;BME280;27638;42.184;24.848;2024-03-23T13:28:19;99491.16;;;16.73;31.78
41947;BME280;27638;42.184;24.848;2024-03-23T13:30:55;99485.38;;;16.83;31.52
41947;BME280;27638;42.184;24.848;2024-03-23T13:33:21;99481.84;;;16.89;30.73
41947;BME280;27638;42.184;24.848;2024-03-23T13:35:53;99488.44;;;16.93;31.17
41947;BME280;27638;42.184;24.848;2024-03-23T13:38:20;99475.47;;;16.90;32.56
41947;BME280;27638;42.184;24.848;2024-03-23T13:40:59;99472.38;;;16.93;32.30
41947;BME280;27638;42.184;24.848;2024-03-23T13:43:28;99472.56;;;16.98;31.83
41947;BME280;27638;42.184;24.848;2024-03-23T13:45:55;99472.81;;;16.83;30.69
41947;BME280;27638;42.184;24.848;2024-03-23T13:48:22;99467.06;;;16.86;31.36
41947;BME280;27638;42.184;24.848;2024-03-23T13:50:56;99464.19;;;16.81;30.25
41947;BME280;27638;42.184;24.848;2024-03-23T13:53:22;99463.38;;;16.81;31.29
41947;BME280;27638;42.184;24.848;2024-03-23T13:55:49;99450.19;;;16.86;31.03
41947;BME280;27638;42.184;24.848;2024-03-23T13:58:15;99445.63;;;17.00;30.08